sensor_id;sensor_type;location;lat;lon;timestamp;temperature;humidity
56725;DHT22;42608;52.776;6.968;2024-02-23T00:01:25;5.60;99.90
56725;DHT22;42608;52.776;6.968;2024-02-23T00:03:53;5.60;99.90
56725;DHT22;42608;52.776;6.968;2024-02-23T00:06:21;5.50;99.90
56725;DHT22;42608;52.776;6.968;2024-02-23T00:08:48;5.50;99.90
56725;DHT22;42608;52.776;6.968;2024-02-23T00:11:13;5.40;99.90
56725;DHT22;42608;52.776;6.968;2024-02-23T00:13:39;5.40;99.90
56725;DHT22;42608;52.776;6.968;2024-02-23T00:16:05;5.40;99.90
56725;DHT22;42608;52.776;6.968;2024-02-23T00:18:30;5.40;99.90
56725;DHT22;42608;52.776;6.968;2024-02-23T00:20:56;5.40;99.90
56725;DHT22;42608;52.776;6.968;2024-02-23T00:23:23;5.30;99.90
56725;DHT22;42608;52.776;6.968;2024-02-23T00:25:52;5.30;99.90
56725;DHT22;42608;52.776;6.968;2024-02-23T00:28:17;5.30;99.90
56725;DHT22;42608;52.776;6.968;2024-02-23T00:30:43;5.30;99.90
56725;DHT22;42608;52.776;6.968;2024-02-23T00:33:11;5.30;99.90
56725;DHT22;42608;52.776;6.968;2024-02-23T00:35:37;5.20;99.90
56725;DHT22;42608;52.776;6.968;2024-02-23T00:38:03;5.20;99.90
56725;DHT22;42608;52.776;6.968;2024-02-23T00:40:28;5.10;99.90
56725;DHT22;42608;52.776;6.968;2024-02-23T00:42:54;5.00;99.90
56725;DHT22;42608;52.776;6.968;2024-02-23T00:45:19;5.10;99.90
56725;DHT22;42608;52.776;6.968;2024-02-23T00:47:45;5.00;99.90
56725;DHT22;42608;52.776;6.968;2024-02-23T00:50:16;5.00;99.90
56725;DHT22;42608;52.776;6.968;2024-02-23T00:52:42;4.90;99.90
56725;DHT22;42608;52.776;6.968;2024-02-23T00:55:10;4.90;99.90
56725;DHT22;42608;52.776;6.968;2024-02-23T00:57:36;4.80;99.90
56725;DHT22;42608;52.776;6.968;2024-02-23T01:00:02;4.70;99.90
56725;DHT22;42608;52.776;6.968;2024-02-23T01:02:31;4.60;99.90
56725;DHT22;42608;52.776;6.968;2024-02-23T01:04:58;4.50;99.90
56725;DHT22;42608;52.776;6.968;2024-02-23T01:07:24;4.50;99.90
56725;DHT22;42608;52.776;6.968;2024-02-23T01:09:49;4.50;99.90
56725;DHT22;42608;52.776;6.968;2024-02-23T01:12:15;4.50;99.90
56725;DHT22;42608;52.776;6.968;2024-02-23T01:14:41;4.40;99.90
56725;DHT22;42608;52.776;6.968;2024-02-23T01:17:14;4.40;99.90
56725;DHT22;42608;52.776;6.968;2024-02-23T01:19:41;4.40;99.90
56725;DHT22;42608;52.776;6.968;2024-02-23T01:22:09;4.40;99.90
56725;DHT22;42608;52.776;6.968;2024-02-23T01:24:35;4.40;99.90
56725;DHT22;42608;52.776;6.968;2024-02-23T01:27:00;4.40;99.90
56725;DHT22;42608;52.776;6.968;2024-02-23T01:29:26;4.50;99.90
56725;DHT22;42608;52.776;6.968;2024-02-23T01:31:52;4.50;99.90
56725;DHT22;42608;52.776;6.968;2024-02-23T01:34:22;4.50;99.90
56725;DHT22;42608;52.776;6.968;2024-02-23T01:36:48;4.50;99.90
56725;DHT22;42608;52.776;6.968;2024-02-23T01:39:13;4.50;99.90
56725;DHT22;42608;52.776;6.968;2024-02-23T01:41:39;4.50;99.90
56725;DHT22;42608;52.776;6.968;2024-02-23T01:44:04;4.50;99.90
56725;DHT22;42608;52.776;6.968;2024-02-23T01:46:30;4.50;99.90
56725;DHT22;42608;52.776;6.968;2024-02-23T01:48:56;4.60;99.90
56725;DHT22;42608;52.776;6.968;2024-02-23T01:51:22;4.50;99.90
56725;DHT22;42608;52.776;6.968;2024-02-23T01:53:47;4.60;99.90
56725;DHT22;42608;52.776;6.968;2024-02-23T01:56:13;4.50;99.90
56725;DHT22;42608;52.776;6.968;2024-02-23T01:58:43;4.60;99.90
56725;DHT22;42608;52.776;6.968;2024-02-23T02:01:10;4.60;99.90
56725;DHT22;42608;52.776;6.968;2024-02-23T02:03:36;4.60;99.90
56725;DHT22;42608;52.776;6.968;2024-02-23T02:06:03;4.60;99.90
56725;DHT22;42608;52.776;6.968;2024-02-23T02:08:29;4.70;99.90
56725;DHT22;42608;52.776;6.968;2024-02-23T02:10:55;4.70;99.90
56725;DHT22;42608;52.776;6.968;2024-02-23T02:13:21;4.70;99.90
56725;DHT22;42608;52.776;6.968;2024-02-23T02:15:46;4.70;99.90
56725;DHT22;42608;52.776;6.968;2024-02-23T02:18:12;4.80;99.90
56725;DHT22;42608;52.776;6.968;2024-02-23T02:20:37;4.80;99.90
56725;DHT22;42608;52.776;6.968;2024-02-23T02:23:06;4.80;99.90
56725;DHT22;42608;52.776;6.968;2024-02-23T02:25:32;4.80;99.90
56725;DHT22;42608;52.776;6.968;2024-02-23T02:27:58;4.90;99.90
56725;DHT22;42608;52.776;6.968;2024-02-23T02:30:23;4.90;99.90
56725;DHT22;42608;52.776;6.968;2024-02-23T02:32:49;4.90;99.90
56725;DHT22;42608;52.776;6.968;2024-02-23T02:35:14;4.90;99.90
56725;DHT22;42608;52.776;6.968;2024-02-23T02:37:40;5.00;99.90
56725;DHT22;42608;52.776;6.968;2024-02-23T02:40:06;5.00;99.90
56725;DHT22;42608;52.776;6.968;2024-02-23T02:42:32;5.00;99.90
56725;DHT22;42608;52.776;6.968;2024-02-23T02:44:58;5.00;99.90
56725;DHT22;42608;52.776;6.968;2024-02-23T02:47:23;5.00;99.90
56725;DHT22;42608;52.776;6.968;2024-02-23T02:49:49;5.00;99.90
56725;DHT22;42608;52.776;6.968;2024-02-23T02:52:15;5.00;99.90
56725;DHT22;42608;52.776;6.968;2024-02-23T02:54:40;5.00;99.90
56725;DHT22;42608;52.776;6.968;2024-02-23T02:57:06;5.00;99.90
56725;DHT22;42608;52.776;6.968;2024-02-23T02:59:35;5.00;99.90
56725;DHT22;42608;52.776;6.968;2024-02-23T03:02:03;5.10;99.90
56725;DHT22;42608;52.776;6.968;2024-02-23T03:04:32;5.10;99.90
56725;DHT22;42608;52.776;6.968;2024-02-23T03:07:00;5.00;99.90
56725;DHT22;42608;52.776;6.968;2024-02-23T03:09:26;5.00;99.90
56725;DHT22;42608;52.776;6.968;2024-02-23T03:11:51;5.00;99.90
56725;DHT22;42608;52.776;6.968;2024-02-23T03:14:17;5.00;99.90
56725;DHT22;42608;52.776;6.968;2024-02-23T03:16:43;4.90;99.90
56725;DHT22;42608;52.776;6.968;2024-02-23T03:19:09;4.90;99.90
56725;DHT22;42608;52.776;6.968;2024-02-23T03:21:37;4.90;99.90
56725;DHT22;42608;52.776;6.968;2024-02-23T03:24:03;4.80;99.90
56725;DHT22;42608;52.776;6.968;2024-02-23T03:26:28;4.80;99.90
56725;DHT22;42608;52.776;6.968;2024-02-23T03:28:54;4.80;99.90
56725;DHT22;42608;52.776;6.968;2024-02-23T03:31:19;4.80;99.90
56725;DHT22;42608;52.776;6.968;2024-02-23T03:33:45;4.70;99.90
56725;DHT22;42608;52.776;6.968;2024-02-23T03:36:11;4.80;99.90
56725;DHT22;42608;52.776;6.968;2024-02-23T03:38:36;4.80;99.90
56725;DHT22;42608;52.776;6.968;2024-02-23T03:41:02;4.80;99.90
56725;DHT22;42608;52.776;6.968;2024-02-23T03:43:27;4.70;99.90
56725;DHT22;42608;52.776;6.968;2024-02-23T03:45:53;4.80;99.90
56725;DHT22;42608;52.776;6.968;2024-02-23T03:48:19;4.80;99.90
56725;DHT22;42608;52.776;6.968;2024-02-23T03:50:45;4.70;99.90
56725;DHT22;42608;52.776;6.968;2024-02-23T03:53:11;4.70;99.90
56725;DHT22;42608;52.776;6.968;2024-02-23T03:55:36;4.80;99.90
56725;DHT22;42608;52.776;6.968;2024-02-23T03:58:02;4.80;99.90
56725;DHT22;42608;52.776;6.968;2024-02-23T04:00:27;4.70;99.90
56725;DHT22;42608;52.776;6.968;2024-02-23T04:02:53;4.80;99.90
56725;DHT22;42608;52.776;6.968;2024-02-23T04:05:20;4.70;99.90
56725;DHT22;42608;52.776;6.968;2024-02-23T04:07:49;4.70;99.90
56725;DHT22;42608;52.776;6.968;2024-02-23T04:10:14;4.70;99.90
56725;DHT22;42608;52.776;6.968;2024-02-23T04:12:46;4.80;99.90
56725;DHT22;42608;52.776;6.968;2024-02-23T04:15:12;4.80;99.90
56725;DHT22;42608;52.776;6.968;2024-02-23T04:17:37;4.70;99.90
56725;DHT22;42608;52.776;6.968;2024-02-23T04:20:06;4.70;99.90
56725;DHT22;42608;52.776;6.968;2024-02-23T04:22:32;4.70;99.90
56725;DHT22;42608;52.776;6.968;2024-02-23T04:24:58;4.70;99.90
56725;DHT22;42608;52.776;6.968;2024-02-23T04:27:23;4.70;99.90
56725;DHT22;42608;52.776;6.968;2024-02-23T04:29:49;4.70;99.90
56725;DHT22;42608;52.776;6.968;2024-02-23T04:32:14;4.70;99.90
56725;DHT22;42608;52.776;6.968;2024-02-23T04:34:40;4.70;99.90
56725;DHT22;42608;52.776;6.968;2024-02-23T04:37:06;4.70;99.90
56725;DHT22;42608;52.776;6.968;2024-02-23T04:39:32;4.60;99.90
56725;DHT22;42608;52.776;6.968;2024-02-23T04:41:57;4.70;99.90
56725;DHT22;42608;52.776;6.968;2024-02-23T04:44:23;4.60;99.90
56725;DHT22;42608;52.776;6.968;2024-02-23T04:46:50;4.60;99.90
56725;DHT22;42608;52.776;6.968;2024-02-23T04:49:16;4.60;99.90
56725;DHT22;42608;52.776;6.968;2024-02-23T04:51:41;4.70;99.90
56725;DHT22;42608;52.776;6.968;2024-02-23T04:54:07;4.60;99.90
56725;DHT22;42608;52.776;6.968;2024-02-23T04:56:42;4.70;99.90
56725;DHT22;42608;52.776;6.968;2024-02-23T04:59:07;4.60;99.90
56725;DHT22;42608;52.776;6.968;2024-02-23T05:01:36;4.70;99.90
56725;DHT22;42608;52.776;6.968;2024-02-23T05:04:02;4.70;99.90
56725;DHT22;42608;52.776;6.968;2024-02-23T05:06:29;4.70;99.90
56725;DHT22;42608;52.776;6.968;2024-02-23T05:08:54;4.70;99.90
56725;DHT22;42608;52.776;6.968;2024-02-23T05:11:20;4.70;99.90
56725;DHT22;42608;52.776;6.968;2024-02-23T05:13:45;4.80;99.90
56725;DHT22;42608;52.776;6.968;2024-02-23T05:16:11;4.80;99.90
56725;DHT22;42608;52.776;6.968;2024-02-23T05:18:38;4.80;99.90
56725;DHT22;42608;52.776;6.968;2024-02-23T05:21:04;4.80;99.90
56725;DHT22;42608;52.776;6.968;2024-02-23T05:23:30;4.90;99.90
56725;DHT22;42608;52.776;6.968;2024-02-23T05:25:56;4.90;99.90
56725;DHT22;42608;52.776;6.968;2024-02-23T05:28:24;4.90;99.90
56725;DHT22;42608;52.776;6.968;2024-02-23T05:30:49;4.90;99.90
56725;DHT22;42608;52.776;6.968;2024-02-23T05:33:15;4.90;99.90
56725;DHT22;42608;52.776;6.968;2024-02-23T05:35:40;4.90;99.90
56725;DHT22;42608;52.776;6.968;2024-02-23T05:38:06;4.90;99.90
56725;DHT22;42608;52.776;6.968;2024-02-23T05:40:32;4.90;99.90
56725;DHT22;42608;52.776;6.968;2024-02-23T05:43:01;4.90;99.90
56725;DHT22;42608;52.776;6.968;2024-02-23T05:45:26;4.90;99.90
56725;DHT22;42608;52.776;6.968;2024-02-23T05:47:52;5.00;99.90
56725;DHT22;42608;52.776;6.968;2024-02-23T05:50:18;5.00;99.90
56725;DHT22;42608;52.776;6.968;2024-02-23T05:52:46;5.00;99.90
56725;DHT22;42608;52.776;6.968;2024-02-23T05:55:12;5.00;99.90
56725;DHT22;42608;52.776;6.968;2024-02-23T05:57:37;5.00;99.90
56725;DHT22;42608;52.776;6.968;2024-02-23T06:00:05;5.00;99.90
56725;DHT22;42608;52.776;6.968;2024-02-23T06:02:32;5.00;99.90
56725;DHT22;42608;52.776;6.968;2024-02-23T06:05:01;5.00;99.90
56725;DHT22;42608;52.776;6.968;2024-02-23T06:07:29;5.00;99.90
56725;DHT22;42608;52.776;6.968;2024-02-23T06:09:55;5.00;99.90
56725;DHT22;42608;52.776;6.968;2024-02-23T06:12:22;5.00;99.90
56725;DHT22;42608;52.776;6.968;2024-02-23T06:14:50;4.90;99.90
56725;DHT22;42608;52.776;6.968;2024-02-23T06:17:16;4.90;99.90
56725;DHT22;42608;52.776;6.968;2024-02-23T06:19:42;4.90;99.90
56725;DHT22;42608;52.776;6.968;2024-02-23T06:22:10;4.90;99.90
56725;DHT22;42608;52.776;6.968;2024-02-23T06:24:37;4.90;99.90
56725;DHT22;42608;52.776;6.968;2024-02-23T06:27:03;5.00;99.90
56725;DHT22;42608;52.776;6.968;2024-02-23T06:29:29;5.00;99.90
56725;DHT22;42608;52.776;6.968;2024-02-23T06:31:55;4.90;99.90
56725;DHT22;42608;52.776;6.968;2024-02-23T06:34:20;5.00;99.90
56725;DHT22;42608;52.776;6.968;2024-02-23T06:36:46;5.00;99.90
56725;DHT22;42608;52.776;6.968;2024-02-23T06:39:14;5.00;99.90
56725;DHT22;42608;52.776;6.968;2024-02-23T06:41:43;5.00;99.90
56725;DHT22;42608;52.776;6.968;2024-02-23T06:44:14;5.00;99.90
56725;DHT22;42608;52.776;6.968;2024-02-23T06:46:40;5.00;99.90
56725;DHT22;42608;52.776;6.968;2024-02-23T06:49:06;5.00;99.90
56725;DHT22;42608;52.776;6.968;2024-02-23T06:51:34;5.00;99.90
56725;DHT22;42608;52.776;6.968;2024-02-23T06:54:00;5.00;99.90
56725;DHT22;42608;52.776;6.968;2024-02-23T06:56:25;5.00;99.90
56725;DHT22;42608;52.776;6.968;2024-02-23T06:58:54;5.10;99.90
56725;DHT22;42608;52.776;6.968;2024-02-23T07:01:20;5.10;99.90
56725;DHT22;42608;52.776;6.968;2024-02-23T07:03:45;5.10;99.90
56725;DHT22;42608;52.776;6.968;2024-02-23T07:06:11;5.10;99.90
56725;DHT22;42608;52.776;6.968;2024-02-23T07:08:36;5.10;99.90
56725;DHT22;42608;52.776;6.968;2024-02-23T07:11:02;5.20;99.90
56725;DHT22;42608;52.776;6.968;2024-02-23T07:13:28;5.20;99.90
56725;DHT22;42608;52.776;6.968;2024-02-23T07:15:55;5.20;99.90
56725;DHT22;42608;52.776;6.968;2024-02-23T07:18:21;5.20;99.90
56725;DHT22;42608;52.776;6.968;2024-02-23T07:20:47;5.20;99.90
56725;DHT22;42608;52.776;6.968;2024-02-23T07:23:12;5.20;99.90
56725;DHT22;42608;52.776;6.968;2024-02-23T07:25:38;5.20;99.90
56725;DHT22;42608;52.776;6.968;2024-02-23T07:28:04;5.30;99.90
56725;DHT22;42608;52.776;6.968;2024-02-23T07:30:29;5.30;99.90
56725;DHT22;42608;52.776;6.968;2024-02-23T07:32:55;5.30;99.90
56725;DHT22;42608;52.776;6.968;2024-02-23T07:35:20;5.30;99.90
56725;DHT22;42608;52.776;6.968;2024-02-23T07:37:46;5.30;99.90
56725;DHT22;42608;52.776;6.968;2024-02-23T07:40:12;5.30;99.90
56725;DHT22;42608;52.776;6.968;2024-02-23T07:42:41;5.30;99.90
56725;DHT22;42608;52.776;6.968;2024-02-23T07:45:07;5.30;99.90
56725;DHT22;42608;52.776;6.968;2024-02-23T07:47:32;5.40;99.90
56725;DHT22;42608;52.776;6.968;2024-02-23T07:49:58;5.40;99.90
56725;DHT22;42608;52.776;6.968;2024-02-23T07:52:24;5.40;99.90
56725;DHT22;42608;52.776;6.968;2024-02-23T07:54:52;5.40;99.90
56725;DHT22;42608;52.776;6.968;2024-02-23T07:57:18;5.40;99.90
56725;DHT22;42608;52.776;6.968;2024-02-23T07:59:47;5.40;99.90
56725;DHT22;42608;52.776;6.968;2024-02-23T08:02:13;5.50;99.90
56725;DHT22;42608;52.776;6.968;2024-02-23T08:04:39;5.50;99.90
56725;DHT22;42608;52.776;6.968;2024-02-23T08:07:04;5.50;99.90
56725;DHT22;42608;52.776;6.968;2024-02-23T08:09:30;5.50;99.90
56725;DHT22;42608;52.776;6.968;2024-02-23T08:11:56;5.60;99.90
56725;DHT22;42608;52.776;6.968;2024-02-23T08:14:21;5.60;99.90
56725;DHT22;42608;52.776;6.968;2024-02-23T08:16:50;5.60;99.90
56725;DHT22;42608;52.776;6.968;2024-02-23T08:19:15;5.70;99.90
56725;DHT22;42608;52.776;6.968;2024-02-23T08:21:41;5.70;99.90
56725;DHT22;42608;52.776;6.968;2024-02-23T08:24:07;5.70;99.90
56725;DHT22;42608;52.776;6.968;2024-02-23T08:26:33;5.80;99.90
56725;DHT22;42608;52.776;6.968;2024-02-23T08:28:59;5.90;99.90
56725;DHT22;42608;52.776;6.968;2024-02-23T08:31:30;5.90;99.90
56725;DHT22;42608;52.776;6.968;2024-02-23T08:33:56;5.90;99.90
56725;DHT22;42608;52.776;6.968;2024-02-23T08:36:21;5.90;99.90
56725;DHT22;42608;52.776;6.968;2024-02-23T08:38:47;6.00;99.90
56725;DHT22;42608;52.776;6.968;2024-02-23T08:41:13;6.00;99.90
56725;DHT22;42608;52.776;6.968;2024-02-23T08:43:38;6.00;99.90
56725;DHT22;42608;52.776;6.968;2024-02-23T08:46:04;6.10;99.90
56725;DHT22;42608;52.776;6.968;2024-02-23T08:48:29;6.10;99.90
56725;DHT22;42608;52.776;6.968;2024-02-23T08:50:55;6.10;99.90
56725;DHT22;42608;52.776;6.968;2024-02-23T08:53:21;6.10;99.90
56725;DHT22;42608;52.776;6.968;2024-02-23T08:55:46;6.20;99.90
56725;DHT22;42608;52.776;6.968;2024-02-23T08:58:12;6.20;99.90
56725;DHT22;42608;52.776;6.968;2024-02-23T09:00:38;6.20;99.90
56725;DHT22;42608;52.776;6.968;2024-02-23T09:03:04;6.30;99.90
56725;DHT22;42608;52.776;6.968;2024-02-23T09:05:29;6.30;99.90
56725;DHT22;42608;52.776;6.968;2024-02-23T09:07:55;6.30;99.90
56725;DHT22;42608;52.776;6.968;2024-02-23T09:10:20;6.40;99.90
56725;DHT22;42608;52.776;6.968;2024-02-23T09:12:46;6.40;99.90
56725;DHT22;42608;52.776;6.968;2024-02-23T09:15:11;6.50;99.90
56725;DHT22;42608;52.776;6.968;2024-02-23T09:17:40;6.60;99.90
56725;DHT22;42608;52.776;6.968;2024-02-23T09:20:07;6.60;99.90
56725;DHT22;42608;52.776;6.968;2024-02-23T09:22:33;6.60;99.90
56725;DHT22;42608;52.776;6.968;2024-02-23T09:24:58;6.70;99.90
56725;DHT22;42608;52.776;6.968;2024-02-23T09:27:24;6.60;99.90
56725;DHT22;42608;52.776;6.968;2024-02-23T09:29:49;6.60;99.90
56725;DHT22;42608;52.776;6.968;2024-02-23T09:32:15;6.60;99.90
56725;DHT22;42608;52.776;6.968;2024-02-23T09:34:41;6.60;99.90
56725;DHT22;42608;52.776;6.968;2024-02-23T09:37:06;6.60;99.90
56725;DHT22;42608;52.776;6.968;2024-02-23T09:39:32;6.70;99.90
56725;DHT22;42608;52.776;6.968;2024-02-23T09:42:00;6.70;99.90
56725;DHT22;42608;52.776;6.968;2024-02-23T09:44:27;6.70;99.90
56725;DHT22;42608;52.776;6.968;2024-02-23T09:46:57;6.80;99.90
56725;DHT22;42608;52.776;6.968;2024-02-23T09:49:23;6.70;99.90
56725;DHT22;42608;52.776;6.968;2024-02-23T09:51:49;6.80;99.90
56725;DHT22;42608;52.776;6.968;2024-02-23T09:54:14;6.80;99.90
56725;DHT22;42608;52.776;6.968;2024-02-23T09:56:40;6.80;99.90
56725;DHT22;42608;52.776;6.968;2024-02-23T09:59:05;6.90;99.90
56725;DHT22;42608;52.776;6.968;2024-02-23T10:01:31;6.90;99.90
56725;DHT22;42608;52.776;6.968;2024-02-23T10:03:59;7.00;99.90
56725;DHT22;42608;52.776;6.968;2024-02-23T10:06:25;7.00;99.90
56725;DHT22;42608;52.776;6.968;2024-02-23T10:08:54;7.00;99.90
56725;DHT22;42608;52.776;6.968;2024-02-23T10:11:25;7.00;99.90
56725;DHT22;42608;52.776;6.968;2024-02-23T10:13:51;7.10;99.90
56725;DHT22;42608;52.776;6.968;2024-02-23T10:16:19;7.10;99.90
56725;DHT22;42608;52.776;6.968;2024-02-23T10:18:46;7.10;99.90
56725;DHT22;42608;52.776;6.968;2024-02-23T10:21:12;7.10;99.90
56725;DHT22;42608;52.776;6.968;2024-02-23T10:23:38;7.10;99.90
56725;DHT22;42608;52.776;6.968;2024-02-23T10:26:04;7.20;99.90
56725;DHT22;42608;52.776;6.968;2024-02-23T10:28:30;7.10;99.90
56725;DHT22;42608;52.776;6.968;2024-02-23T10:30:56;7.20;99.90
56725;DHT22;42608;52.776;6.968;2024-02-23T10:33:22;7.20;99.90
56725;DHT22;42608;52.776;6.968;2024-02-23T10:35:48;7.20;99.90
56725;DHT22;42608;52.776;6.968;2024-02-23T10:38:14;7.20;99.90
56725;DHT22;42608;52.776;6.968;2024-02-23T10:40:42;7.20;99.90
56725;DHT22;42608;52.776;6.968;2024-02-23T10:43:11;7.20;99.90
56725;DHT22;42608;52.776;6.968;2024-02-23T10:45:38;7.20;99.90
56725;DHT22;42608;52.776;6.968;2024-02-23T10:48:06;7.20;99.90
56725;DHT22;42608;52.776;6.968;2024-02-23T10:50:31;7.20;99.90
56725;DHT22;42608;52.776;6.968;2024-02-23T10:52:58;7.20;99.90
56725;DHT22;42608;52.776;6.968;2024-02-23T10:55:24;7.10;99.90
56725;DHT22;42608;52.776;6.968;2024-02-23T10:57:51;7.20;99.90
56725;DHT22;42608;52.776;6.968;2024-02-23T11:00:18;7.10;99.90
56725;DHT22;42608;52.776;6.968;2024-02-23T11:02:48;7.20;99.90
56725;DHT22;42608;52.776;6.968;2024-02-23T11:05:14;7.20;99.90
56725;DHT22;42608;52.776;6.968;2024-02-23T11:07:40;7.20;99.90
56725;DHT22;42608;52.776;6.968;2024-02-23T11:10:06;7.20;99.90
56725;DHT22;42608;52.776;6.968;2024-02-23T11:12:33;7.20;99.90
56725;DHT22;42608;52.776;6.968;2024-02-23T11:14:59;7.30;99.90
56725;DHT22;42608;52.776;6.968;2024-02-23T11:17:29;7.30;99.90
56725;DHT22;42608;52.776;6.968;2024-02-23T11:19:55;7.30;99.90
56725;DHT22;42608;52.776;6.968;2024-02-23T11:22:24;7.30;99.90
56725;DHT22;42608;52.776;6.968;2024-02-23T11:24:51;7.30;99.90
56725;DHT22;42608;52.776;6.968;2024-02-23T11:27:17;7.30;99.90
56725;DHT22;42608;52.776;6.968;2024-02-23T11:29:46;7.30;99.90
56725;DHT22;42608;52.776;6.968;2024-02-23T11:32:17;7.30;99.90
56725;DHT22;42608;52.776;6.968;2024-02-23T11:34:58;7.30;99.90
56725;DHT22;42608;52.776;6.968;2024-02-23T11:37:30;7.30;99.90
56725;DHT22;42608;52.776;6.968;2024-02-23T11:40:05;7.30;99.90
56725;DHT22;42608;52.776;6.968;2024-02-23T11:42:35;7.20;99.90
56725;DHT22;42608;52.776;6.968;2024-02-23T11:45:01;7.20;99.90
56725;DHT22;42608;52.776;6.968;2024-02-23T11:47:26;7.20;99.90
56725;DHT22;42608;52.776;6.968;2024-02-23T11:49:52;7.20;99.90
56725;DHT22;42608;52.776;6.968;2024-02-23T11:52:17;7.20;99.90
56725;DHT22;42608;52.776;6.968;2024-02-23T11:54:43;7.20;99.90
56725;DHT22;42608;52.776;6.968;2024-02-23T11:57:09;7.10;99.90
56725;DHT22;42608;52.776;6.968;2024-02-23T11:59:35;7.10;99.90
56725;DHT22;42608;52.776;6.968;2024-02-23T12:02:01;7.10;99.90
56725;DHT22;42608;52.776;6.968;2024-02-23T12:04:29;7.00;99.90
56725;DHT22;42608;52.776;6.968;2024-02-23T12:06:55;7.00;99.90
56725;DHT22;42608;52.776;6.968;2024-02-23T12:09:21;6.90;99.90
56725;DHT22;42608;52.776;6.968;2024-02-23T12:11:49;6.80;99.90
56725;DHT22;42608;52.776;6.968;2024-02-23T12:14:15;6.80;99.90
56725;DHT22;42608;52.776;6.968;2024-02-23T12:16:41;6.70;99.90
56725;DHT22;42608;52.776;6.968;2024-02-23T12:19:07;6.70;99.90
56725;DHT22;42608;52.776;6.968;2024-02-23T12:21:34;6.70;99.90
56725;DHT22;42608;52.776;6.968;2024-02-23T12:24:05;6.70;99.90
56725;DHT22;42608;52.776;6.968;2024-02-23T12:26:33;6.70;99.90
56725;DHT22;42608;52.776;6.968;2024-02-23T12:29:02;6.70;99.90
56725;DHT22;42608;52.776;6.968;2024-02-23T12:31:28;6.70;99.90
56725;DHT22;42608;52.776;6.968;2024-02-23T12:33:54;6.70;99.90
56725;DHT22;42608;52.776;6.968;2024-02-23T12:36:22;6.70;99.90
56725;DHT22;42608;52.776;6.968;2024-02-23T12:38:48;6.70;99.90
56725;DHT22;42608;52.776;6.968;2024-02-23T12:41:13;6.70;99.90
56725;DHT22;42608;52.776;6.968;2024-02-23T12:43:39;6.70;99.90
56725;DHT22;42608;52.776;6.968;2024-02-23T12:46:04;6.60;99.90
56725;DHT22;42608;52.776;6.968;2024-02-23T12:48:32;6.60;99.90
56725;DHT22;42608;52.776;6.968;2024-02-23T12:50:57;6.60;99.90
56725;DHT22;42608;52.776;6.968;2024-02-23T12:53:41;6.60;99.90
56725;DHT22;42608;52.776;6.968;2024-02-23T12:56:11;6.60;99.90
56725;DHT22;42608;52.776;6.968;2024-02-23T12:58:40;6.60;99.90
56725;DHT22;42608;52.776;6.968;2024-02-23T13:01:06;6.60;99.90
56725;DHT22;42608;52.776;6.968;2024-02-23T13:03:32;6.70;99.90
56725;DHT22;42608;52.776;6.968;2024-02-23T13:05:58;6.70;99.90
56725;DHT22;42608;52.776;6.968;2024-02-23T13:08:23;6.70;99.90
56725;DHT22;42608;52.776;6.968;2024-02-23T13:10:49;6.70;99.90
56725;DHT22;42608;52.776;6.968;2024-02-23T13:13:15;6.70;99.90
56725;DHT22;42608;52.776;6.968;2024-02-23T13:15:49;6.70;99.90
56725;DHT22;42608;52.776;6.968;2024-02-23T13:18:14;6.70;99.90
56725;DHT22;42608;52.776;6.968;2024-02-23T13:20:40;6.70;99.90
56725;DHT22;42608;52.776;6.968;2024-02-23T13:23:09;6.70;99.90
56725;DHT22;42608;52.776;6.968;2024-02-23T13:25:36;6.70;99.90
56725;DHT22;42608;52.776;6.968;2024-02-23T13:28:02;6.70;99.90
56725;DHT22;42608;52.776;6.968;2024-02-23T13:30:29;6.70;99.90
56725;DHT22;42608;52.776;6.968;2024-02-23T13:32:55;6.70;99.90
56725;DHT22;42608;52.776;6.968;2024-02-23T13:35:20;6.70;99.90
56725;DHT22;42608;52.776;6.968;2024-02-23T13:37:46;6.70;99.90
56725;DHT22;42608;52.776;6.968;2024-02-23T13:40:11;6.70;99.90
56725;DHT22;42608;52.776;6.968;2024-02-23T13:42:37;6.70;99.90
56725;DHT22;42608;52.776;6.968;2024-02-23T13:45:06;6.70;99.90
56725;DHT22;42608;52.776;6.968;2024-02-23T13:47:32;6.80;99.90
56725;DHT22;42608;52.776;6.968;2024-02-23T13:49:58;6.70;99.90
56725;DHT22;42608;52.776;6.968;2024-02-23T13:52:23;6.70;99.90
56725;DHT22;42608;52.776;6.968;2024-02-23T13:54:49;6.80;99.90
56725;DHT22;42608;52.776;6.968;2024-02-23T13:57:14;6.80;99.90
56725;DHT22;42608;52.776;6.968;2024-02-23T13:59:40;6.80;99.90
56725;DHT22;42608;52.776;6.968;2024-02-23T14:02:06;6.80;99.90
56725;DHT22;42608;52.776;6.968;2024-02-23T14:04:31;6.80;99.90
56725;DHT22;42608;52.776;6.968;2024-02-23T14:06:57;6.80;99.90
56725;DHT22;42608;52.776;6.968;2024-02-23T14:09:22;6.80;99.90
56725;DHT22;42608;52.776;6.968;2024-02-23T14:11:48;6.80;99.90
56725;DHT22;42608;52.776;6.968;2024-02-23T14:14:14;6.80;99.90
56725;DHT22;42608;52.776;6.968;2024-02-23T14:16:40;6.80;99.90
56725;DHT22;42608;52.776;6.968;2024-02-23T14:19:05;6.90;99.90
56725;DHT22;42608;52.776;6.968;2024-02-23T14:21:31;6.90;99.90
56725;DHT22;42608;52.776;6.968;2024-02-23T14:23:57;6.90;99.90
56725;DHT22;42608;52.776;6.968;2024-02-23T14:26:22;7.00;99.90
56725;DHT22;42608;52.776;6.968;2024-02-23T14:28:48;7.00;99.90
56725;DHT22;42608;52.776;6.968;2024-02-23T14:31:14;7.00;99.90
56725;DHT22;42608;52.776;6.968;2024-02-23T14:33:40;7.00;99.90
56725;DHT22;42608;52.776;6.968;2024-02-23T14:36:06;7.00;99.90
56725;DHT22;42608;52.776;6.968;2024-02-23T14:38:31;7.00;99.90
56725;DHT22;42608;52.776;6.968;2024-02-23T14:40:57;7.00;99.90
56725;DHT22;42608;52.776;6.968;2024-02-23T14:43:22;7.00;99.90
56725;DHT22;42608;52.776;6.968;2024-02-23T14:45:48;7.00;99.90
56725;DHT22;42608;52.776;6.968;2024-02-23T14:48:14;7.10;99.90
56725;DHT22;42608;52.776;6.968;2024-02-23T14:50:39;7.10;99.90
56725;DHT22;42608;52.776;6.968;2024-02-23T14:53:05;7.10;99.90
56725;DHT22;42608;52.776;6.968;2024-02-23T14:55:32;7.10;99.90
56725;DHT22;42608;52.776;6.968;2024-02-23T14:57:57;7.10;99.90
56725;DHT22;42608;52.776;6.968;2024-02-23T15:00:23;7.10;99.90
56725;DHT22;42608;52.776;6.968;2024-02-23T15:02:49;7.10;99.90
56725;DHT22;42608;52.776;6.968;2024-02-23T15:05:17;7.20;99.90
56725;DHT22;42608;52.776;6.968;2024-02-23T15:07:46;7.20;99.90
56725;DHT22;42608;52.776;6.968;2024-02-23T15:10:11;7.20;99.90
56725;DHT22;42608;52.776;6.968;2024-02-23T15:12:37;7.20;99.90
56725;DHT22;42608;52.776;6.968;2024-02-23T15:15:03;7.20;99.90
56725;DHT22;42608;52.776;6.968;2024-02-23T15:17:29;7.30;99.90
56725;DHT22;42608;52.776;6.968;2024-02-23T15:19:55;7.30;99.90
56725;DHT22;42608;52.776;6.968;2024-02-23T15:22:20;7.30;99.90
56725;DHT22;42608;52.776;6.968;2024-02-23T15:24:46;7.40;99.90
56725;DHT22;42608;52.776;6.968;2024-02-23T15:27:18;7.40;99.90
56725;DHT22;42608;52.776;6.968;2024-02-23T15:29:44;7.40;99.90
56725;DHT22;42608;52.776;6.968;2024-02-23T15:32:10;7.40;99.90
56725;DHT22;42608;52.776;6.968;2024-02-23T15:34:36;7.40;99.90
56725;DHT22;42608;52.776;6.968;2024-02-23T15:37:01;7.40;99.90
56725;DHT22;42608;52.776;6.968;2024-02-23T15:39:28;7.40;99.90